sensor_id;sensor_type;location;lat;lon;timestamp;temperature;humidity
72772;SHT30;60894;42.544;1.516;2023-03-14T00:01:32;7.82;70.21
72772;SHT30;60894;42.544;1.516;2023-03-14T00:03:59;7.78;72.24
72772;SHT30;60894;42.544;1.516;2023-03-14T00:06:26;7.81;73.19
72772;SHT30;60894;42.544;1.516;2023-03-14T00:08:53;7.85;72.10
72772;SHT30;60894;42.544;1.516;2023-03-14T00:11:21;7.83;71.56
72772;SHT30;60894;42.544;1.516;2023-03-14T00:13:49;7.83;71.51
72772;SHT30;60894;42.544;1.516;2023-03-14T00:16:16;7.77;71.44
72772;SHT30;60894;42.544;1.516;2023-03-14T00:18:44;7.67;72.56
72772;SHT30;60894;42.544;1.516;2023-03-14T00:21:11;7.60;73.47
72772;SHT30;60894;42.544;1.516;2023-03-14T00:23:40;7.52;73.57
72772;SHT30;60894;42.544;1.516;2023-03-14T00:26:09;7.46;74.48
72772;SHT30;60894;42.544;1.516;2023-03-14T00:28:36;7.46;73.67
72772;SHT30;60894;42.544;1.516;2023-03-14T00:31:04;7.31;73.71
72772;SHT30;60894;42.544;1.516;2023-03-14T00:33:31;7.38;73.64
72772;SHT30;60894;42.544;1.516;2023-03-14T00:36:02;7.34;74.18
72772;SHT30;60894;42.544;1.516;2023-03-14T00:38:30;7.21;72.53
72772;SHT30;60894;42.544;1.516;2023-03-14T00:40:58;6.88;73.56
72772;SHT30;60894;42.544;1.516;2023-03-14T00:43:25;6.96;75.00
72772;SHT30;60894;42.544;1.516;2023-03-14T00:45:52;6.95;75.96
72772;SHT30;60894;42.544;1.516;2023-03-14T00:48:19;6.93;75.54
72772;SHT30;60894;42.544;1.516;2023-03-14T00:50:47;7.00;75.13
72772;SHT30;60894;42.544;1.516;2023-03-14T00:53:15;7.09;75.64
72772;SHT30;60894;42.544;1.516;2023-03-14T00:55:43;6.96;75.90
72772;SHT30;60894;42.544;1.516;2023-03-14T00:58:12;7.00;75.77
72772;SHT30;60894;42.544;1.516;2023-03-14T01:00:40;6.90;75.75
72772;SHT30;60894;42.544;1.516;2023-03-14T01:03:08;6.80;75.92
72772;SHT30;60894;42.544;1.516;2023-03-14T01:05:35;6.88;75.41
72772;SHT30;60894;42.544;1.516;2023-03-14T01:08:03;6.78;75.41
72772;SHT30;60894;42.544;1.516;2023-03-14T01:10:32;6.72;75.61
72772;SHT30;60894;42.544;1.516;2023-03-14T01:12:58;6.69;75.71
72772;SHT30;60894;42.544;1.516;2023-03-14T01:15:26;6.72;75.94
72772;SHT30;60894;42.544;1.516;2023-03-14T01:17:53;6.72;76.27
72772;SHT30;60894;42.544;1.516;2023-03-14T01:20:20;6.72;75.84
72772;SHT30;60894;42.544;1.516;2023-03-14T01:22:46;6.75;74.69
72772;SHT30;60894;42.544;1.516;2023-03-14T01:25:15;6.64;74.52
72772;SHT30;60894;42.544;1.516;2023-03-14T01:27:43;6.75;75.03
72772;SHT30;60894;42.544;1.516;2023-03-14T01:30:12;6.64;74.34
72772;SHT30;60894;42.544;1.516;2023-03-14T01:32:39;6.61;74.30
72772;SHT30;60894;42.544;1.516;2023-03-14T01:35:07;6.50;74.69
72772;SHT30;60894;42.544;1.516;2023-03-14T01:37:34;6.41;75.47
72772;SHT30;60894;42.544;1.516;2023-03-14T01:40:01;6.38;76.05
72772;SHT30;60894;42.544;1.516;2023-03-14T01:42:29;6.31;75.84
72772;SHT30;60894;42.544;1.516;2023-03-14T01:44:59;6.39;75.86
72772;SHT30;60894;42.544;1.516;2023-03-14T01:47:26;6.35;75.80
72772;SHT30;60894;42.544;1.516;2023-03-14T01:49:56;6.22;75.85
72772;SHT30;60894;42.544;1.516;2023-03-14T01:52:28;6.37;75.06
72772;SHT30;60894;42.544;1.516;2023-03-14T01:55:00;6.27;75.33
72772;SHT30;60894;42.544;1.516;2023-03-14T01:57:32;6.52;74.34
72772;SHT30;60894;42.544;1.516;2023-03-14T02:00:04;6.28;75.32
72772;SHT30;60894;42.544;1.516;2023-03-14T02:02:37;6.21;75.35
72772;SHT30;60894;42.544;1.516;2023-03-14T02:05:04;6.21;75.39
72772;SHT30;60894;42.544;1.516;2023-03-14T02:07:36;6.17;75.15
72772;SHT30;60894;42.544;1.516;2023-03-14T02:10:05;6.16;75.01
72772;SHT30;60894;42.544;1.516;2023-03-14T02:12:33;6.13;75.81
72772;SHT30;60894;42.544;1.516;2023-03-14T02:15:02;6.13;75.54
72772;SHT30;60894;42.544;1.516;2023-03-14T02:17:30;6.07;75.03
72772;SHT30;60894;42.544;1.516;2023-03-14T02:20:10;6.20;74.90
72772;SHT30;60894;42.544;1.516;2023-03-14T02:22:42;6.06;75.24
72772;SHT30;60894;42.544;1.516;2023-03-14T02:25:14;6.03;75.59
72772;SHT30;60894;42.544;1.516;2023-03-14T02:27:44;6.06;75.12
72772;SHT30;60894;42.544;1.516;2023-03-14T02:30:13;6.08;74.34
72772;SHT30;60894;42.544;1.516;2023-03-14T02:32:44;6.13;74.49
72772;SHT30;60894;42.544;1.516;2023-03-14T02:35:15;6.10;73.54
72772;SHT30;60894;42.544;1.516;2023-03-14T02:37:49;6.06;73.30
72772;SHT30;60894;42.544;1.516;2023-03-14T02:40:18;6.07;73.61
72772;SHT30;60894;42.544;1.516;2023-03-14T02:42:46;6.06;73.92
72772;SHT30;60894;42.544;1.516;2023-03-14T02:45:33;6.10;73.56
72772;SHT30;60894;42.544;1.516;2023-03-14T02:48:03;5.86;73.88
72772;SHT30;60894;42.544;1.516;2023-03-14T02:50:34;5.98;73.38
72772;SHT30;60894;42.544;1.516;2023-03-14T02:53:01;5.85;73.42
72772;SHT30;60894;42.544;1.516;2023-03-14T02:55:28;5.85;74.10
72772;SHT30;60894;42.544;1.516;2023-03-14T02:57:56;5.65;74.48
72772;SHT30;60894;42.544;1.516;2023-03-14T03:00:23;5.57;75.21
72772;SHT30;60894;42.544;1.516;2023-03-14T03:02:50;5.85;75.49
72772;SHT30;60894;42.544;1.516;2023-03-14T03:05:17;5.53;75.09
72772;SHT30;60894;42.544;1.516;2023-03-14T03:07:44;5.45;75.45
72772;SHT30;60894;42.544;1.516;2023-03-14T03:10:11;5.38;75.65
72772;SHT30;60894;42.544;1.516;2023-03-14T03:12:38;5.45;75.87
72772;SHT30;60894;42.544;1.516;2023-03-14T03:15:07;5.42;76.69
72772;SHT30;60894;42.544;1.516;2023-03-14T03:17:34;5.43;75.79
72772;SHT30;60894;42.544;1.516;2023-03-14T03:20:01;5.45;75.70
72772;SHT30;60894;42.544;1.516;2023-03-14T03:22:29;5.42;76.59
72772;SHT30;60894;42.544;1.516;2023-03-14T03:24:55;5.29;75.55
72772;SHT30;60894;42.544;1.516;2023-03-14T03:27:22;5.22;76.01
72772;SHT30;60894;42.544;1.516;2023-03-14T03:29:49;5.28;75.76
72772;SHT30;60894;42.544;1.516;2023-03-14T03:32:17;5.14;75.87
72772;SHT30;60894;42.544;1.516;2023-03-14T03:34:44;4.99;75.80
72772;SHT30;60894;42.544;1.516;2023-03-14T03:37:11;5.05;76.40
72772;SHT30;60894;42.544;1.516;2023-03-14T03:39:38;5.08;76.86
72772;SHT30;60894;42.544;1.516;2023-03-14T03:42:05;5.12;76.53
72772;SHT30;60894;42.544;1.516;2023-03-14T03:44:32;5.19;75.75
72772;SHT30;60894;42.544;1.516;2023-03-14T03:46:59;5.19;75.79
72772;SHT30;60894;42.544;1.516;2023-03-14T03:49:29;5.11;76.27
72772;SHT30;60894;42.544;1.516;2023-03-14T03:51:57;5.15;76.68
72772;SHT30;60894;42.544;1.516;2023-03-14T03:54:24;5.22;76.74
72772;SHT30;60894;42.544;1.516;2023-03-14T03:56:51;5.18;76.78
72772;SHT30;60894;42.544;1.516;2023-03-14T03:59:18;5.18;76.85
72772;SHT30;60894;42.544;1.516;2023-03-14T04:01:46;5.18;76.01
72772;SHT30;60894;42.544;1.516;2023-03-14T04:04:13;5.09;75.95
72772;SHT30;60894;42.544;1.516;2023-03-14T04:06:41;5.22;75.40
72772;SHT30;60894;42.544;1.516;2023-03-14T04:09:09;5.15;75.17
72772;SHT30;60894;42.544;1.516;2023-03-14T04:11:36;5.12;75.27
72772;SHT30;60894;42.544;1.516;2023-03-14T04:14:03;5.14;75.18
72772;SHT30;60894;42.544;1.516;2023-03-14T04:16:30;5.16;76.92
72772;SHT30;60894;42.544;1.516;2023-03-14T04:18:58;5.15;77.26
72772;SHT30;60894;42.544;1.516;2023-03-14T04:21:24;5.19;77.13
72772;SHT30;60894;42.544;1.516;2023-03-14T04:23:53;5.08;78.02
72772;SHT30;60894;42.544;1.516;2023-03-14T04:26:20;5.29;76.11
72772;SHT30;60894;42.544;1.516;2023-03-14T04:28:47;5.14;76.25
72772;SHT30;60894;42.544;1.516;2023-03-14T04:31:16;5.19;76.25
72772;SHT30;60894;42.544;1.516;2023-03-14T04:33:43;5.16;76.29
72772;SHT30;60894;42.544;1.516;2023-03-14T04:36:11;5.19;76.98
72772;SHT30;60894;42.544;1.516;2023-03-14T04:38:37;5.19;77.10
72772;SHT30;60894;42.544;1.516;2023-03-14T04:41:06;5.26;76.59
72772;SHT30;60894;42.544;1.516;2023-03-14T04:43:33;5.25;75.87
72772;SHT30;60894;42.544;1.516;2023-03-14T04:46:00;5.35;76.31
72772;SHT30;60894;42.544;1.516;2023-03-14T04:48:27;5.36;75.94
72772;SHT30;60894;42.544;1.516;2023-03-14T04:50:54;5.45;75.57
72772;SHT30;60894;42.544;1.516;2023-03-14T04:53:22;5.42;75.53
72772;SHT30;60894;42.544;1.516;2023-03-14T04:55:49;5.47;75.94
72772;SHT30;60894;42.544;1.516;2023-03-14T04:58:18;5.43;76.37
72772;SHT30;60894;42.544;1.516;2023-03-14T05:00:44;5.47;76.27
72772;SHT30;60894;42.544;1.516;2023-03-14T05:03:11;5.55;76.24
72772;SHT30;60894;42.544;1.516;2023-03-14T05:05:40;5.53;74.86
72772;SHT30;60894;42.544;1.516;2023-03-14T05:08:07;5.52;75.19
72772;SHT30;60894;42.544;1.516;2023-03-14T05:10:34;5.50;75.17
72772;SHT30;60894;42.544;1.516;2023-03-14T05:13:01;5.52;76.01
72772;SHT30;60894;42.544;1.516;2023-03-14T05:15:29;5.42;75.85
72772;SHT30;60894;42.544;1.516;2023-03-14T05:17:56;5.47;76.30
72772;SHT30;60894;42.544;1.516;2023-03-14T05:20:23;5.52;74.58
72772;SHT30;60894;42.544;1.516;2023-03-14T05:22:50;5.90;67.22
72772;SHT30;60894;42.544;1.516;2023-03-14T05:25:17;6.32;65.09
72772;SHT30;60894;42.544;1.516;2023-03-14T05:27:44;6.55;64.08
72772;SHT30;60894;42.544;1.516;2023-03-14T05:30:11;6.62;63.31
72772;SHT30;60894;42.544;1.516;2023-03-14T05:32:39;6.68;64.20
72772;SHT30;60894;42.544;1.516;2023-03-14T05:35:07;6.80;63.17
72772;SHT30;60894;42.544;1.516;2023-03-14T05:37:34;6.82;62.05
72772;SHT30;60894;42.544;1.516;2023-03-14T05:40:01;6.80;60.01
72772;SHT30;60894;42.544;1.516;2023-03-14T05:42:30;6.86;59.30
72772;SHT30;60894;42.544;1.516;2023-03-14T05:44:57;6.79;64.22
72772;SHT30;60894;42.544;1.516;2023-03-14T05:47:24;6.65;65.62
72772;SHT30;60894;42.544;1.516;2023-03-14T05:49:52;6.55;64.23
72772;SHT30;60894;42.544;1.516;2023-03-14T05:52:19;6.48;67.82
72772;SHT30;60894;42.544;1.516;2023-03-14T05:54:47;6.34;71.43
72772;SHT30;60894;42.544;1.516;2023-03-14T05:57:14;6.22;72.09
72772;SHT30;60894;42.544;1.516;2023-03-14T05:59:41;6.24;71.46
72772;SHT30;60894;42.544;1.516;2023-03-14T06:02:07;6.18;70.22
72772;SHT30;60894;42.544;1.516;2023-03-14T06:04:34;5.89;72.67
72772;SHT30;60894;42.544;1.516;2023-03-14T06:07:03;5.63;72.81
72772;SHT30;60894;42.544;1.516;2023-03-14T06:09:30;5.43;73.10
72772;SHT30;60894;42.544;1.516;2023-03-14T06:11:56;5.47;74.55
72772;SHT30;60894;42.544;1.516;2023-03-14T06:14:23;5.45;74.62
72772;SHT30;60894;42.544;1.516;2023-03-14T06:16:50;5.32;74.26
72772;SHT30;60894;42.544;1.516;2023-03-14T06:19:18;5.28;74.69
72772;SHT30;60894;42.544;1.516;2023-03-14T06:21:44;5.16;73.56
72772;SHT30;60894;42.544;1.516;2023-03-14T06:24:13;5.21;72.76
72772;SHT30;60894;42.544;1.516;2023-03-14T06:26:40;5.36;74.79
72772;SHT30;60894;42.544;1.516;2023-03-14T06:29:07;5.49;73.28
72772;SHT30;60894;42.544;1.516;2023-03-14T06:31:34;5.45;73.63
72772;SHT30;60894;42.544;1.516;2023-03-14T06:34:01;5.35;73.40
72772;SHT30;60894;42.544;1.516;2023-03-14T06:36:28;5.29;72.77
72772;SHT30;60894;42.544;1.516;2023-03-14T06:38:55;5.32;73.08
72772;SHT30;60894;42.544;1.516;2023-03-14T06:41:23;5.34;72.97
72772;SHT30;60894;42.544;1.516;2023-03-14T06:43:52;5.42;73.22
72772;SHT30;60894;42.544;1.516;2023-03-14T06:46:19;5.42;72.08
72772;SHT30;60894;42.544;1.516;2023-03-14T06:48:46;5.42;73.10
72772;SHT30;60894;42.544;1.516;2023-03-14T06:51:13;5.46;72.78
72772;SHT30;60894;42.544;1.516;2023-03-14T06:53:39;5.49;73.84
72772;SHT30;60894;42.544;1.516;2023-03-14T06:56:07;5.47;72.38
72772;SHT30;60894;42.544;1.516;2023-03-14T06:58:36;5.50;73.05
72772;SHT30;60894;42.544;1.516;2023-03-14T07:01:03;5.34;72.02
72772;SHT30;60894;42.544;1.516;2023-03-14T07:03:30;5.46;73.01
72772;SHT30;60894;42.544;1.516;2023-03-14T07:05:57;5.59;71.94
72772;SHT30;60894;42.544;1.516;2023-03-14T07:08:24;5.57;70.64
72772;SHT30;60894;42.544;1.516;2023-03-14T07:10:51;5.60;69.70
72772;SHT30;60894;42.544;1.516;2023-03-14T07:13:18;5.77;71.95
72772;SHT30;60894;42.544;1.516;2023-03-14T07:15:46;5.97;63.55
72772;SHT30;60894;42.544;1.516;2023-03-14T07:18:13;6.07;62.61
72772;SHT30;60894;42.544;1.516;2023-03-14T07:20:40;6.27;59.22
72772;SHT30;60894;42.544;1.516;2023-03-14T07:23:07;6.44;57.43
72772;SHT30;60894;42.544;1.516;2023-03-14T07:25:33;6.59;55.60
72772;SHT30;60894;42.544;1.516;2023-03-14T07:28:00;6.72;55.38
72772;SHT30;60894;42.544;1.516;2023-03-14T07:30:27;6.89;51.61
72772;SHT30;60894;42.544;1.516;2023-03-14T07:32:56;7.09;52.79
72772;SHT30;60894;42.544;1.516;2023-03-14T07:35:22;7.19;50.66
72772;SHT30;60894;42.544;1.516;2023-03-14T07:37:49;7.32;51.12
72772;SHT30;60894;42.544;1.516;2023-03-14T07:40:16;7.31;50.39
72772;SHT30;60894;42.544;1.516;2023-03-14T07:42:43;7.37;51.17
72772;SHT30;60894;42.544;1.516;2023-03-14T07:45:11;7.41;50.16
72772;SHT30;60894;42.544;1.516;2023-03-14T07:47:38;7.52;49.11
72772;SHT30;60894;42.544;1.516;2023-03-14T07:50:07;7.58;49.11
72772;SHT30;60894;42.544;1.516;2023-03-14T07:52:34;7.50;49.23
72772;SHT30;60894;42.544;1.516;2023-03-14T07:55:01;7.58;49.44
72772;SHT30;60894;42.544;1.516;2023-03-14T07:57:28;7.64;48.32
72772;SHT30;60894;42.544;1.516;2023-03-14T07:59:55;7.71;48.03
72772;SHT30;60894;42.544;1.516;2023-03-14T08:02:22;7.74;47.87
72772;SHT30;60894;42.544;1.516;2023-03-14T08:04:49;7.74;47.62
72772;SHT30;60894;42.544;1.516;2023-03-14T08:07:18;7.71;48.09
72772;SHT30;60894;42.544;1.516;2023-03-14T08:09:45;7.74;48.82
72772;SHT30;60894;42.544;1.516;2023-03-14T08:12:12;7.75;48.58
72772;SHT30;60894;42.544;1.516;2023-03-14T08:14:39;7.79;46.91
72772;SHT30;60894;42.544;1.516;2023-03-14T08:17:06;7.81;47.54
72772;SHT30;60894;42.544;1.516;2023-03-14T08:19:33;7.81;46.96
72772;SHT30;60894;42.544;1.516;2023-03-14T08:22:00;7.88;45.25
72772;SHT30;60894;42.544;1.516;2023-03-14T08:24:29;7.92;45.77
72772;SHT30;60894;42.544;1.516;2023-03-14T08:26:56;7.99;45.76
72772;SHT30;60894;42.544;1.516;2023-03-14T08:29:23;8.06;46.56
72772;SHT30;60894;42.544;1.516;2023-03-14T08:31:50;8.13;45.96
72772;SHT30;60894;42.544;1.516;2023-03-14T08:34:17;8.14;45.01
72772;SHT30;60894;42.544;1.516;2023-03-14T08:36:44;8.20;44.96
72772;SHT30;60894;42.544;1.516;2023-03-14T08:39:11;8.40;46.11
72772;SHT30;60894;42.544;1.516;2023-03-14T08:41:40;8.53;44.58
72772;SHT30;60894;42.544;1.516;2023-03-14T08:44:08;8.63;43.44
72772;SHT30;60894;42.544;1.516;2023-03-14T08:46:35;8.68;42.36
72772;SHT30;60894;42.544;1.516;2023-03-14T08:49:02;8.78;41.70
72772;SHT30;60894;42.544;1.516;2023-03-14T08:51:29;8.87;42.00
72772;SHT30;60894;42.544;1.516;2023-03-14T08:53:56;8.85;41.51
72772;SHT30;60894;42.544;1.516;2023-03-14T08:56:23;8.78;42.06
72772;SHT30;60894;42.544;1.516;2023-03-14T08:58:51;8.72;43.30
72772;SHT30;60894;42.544;1.516;2023-03-14T09:01:18;8.65;42.60
72772;SHT30;60894;42.544;1.516;2023-03-14T09:03:46;8.70;42.38
72772;SHT30;60894;42.544;1.516;2023-03-14T09:06:14;8.78;42.51
72772;SHT30;60894;42.544;1.516;2023-03-14T09:08:43;8.82;43.13
72772;SHT30;60894;42.544;1.516;2023-03-14T09:11:10;8.95;42.14
72772;SHT30;60894;42.544;1.516;2023-03-14T09:13:37;9.05;41.04
72772;SHT30;60894;42.544;1.516;2023-03-14T09:16:06;9.05;41.86
72772;SHT30;60894;42.544;1.516;2023-03-14T09:18:33;9.19;39.67
72772;SHT30;60894;42.544;1.516;2023-03-14T09:21:00;9.15;38.99
72772;SHT30;60894;42.544;1.516;2023-03-14T09:23:27;9.15;39.63
72772;SHT30;60894;42.544;1.516;2023-03-14T09:25:55;9.16;41.58
72772;SHT30;60894;42.544;1.516;2023-03-14T09:28:22;9.25;41.20
72772;SHT30;60894;42.544;1.516;2023-03-14T09:30:49;9.31;40.94
72772;SHT30;60894;42.544;1.516;2023-03-14T09:33:17;9.40;41.39
72772;SHT30;60894;42.544;1.516;2023-03-14T09:35:44;9.36;42.16
72772;SHT30;60894;42.544;1.516;2023-03-14T09:38:11;9.38;42.59
72772;SHT30;60894;42.544;1.516;2023-03-14T09:40:38;9.32;41.88
72772;SHT30;60894;42.544;1.516;2023-03-14T09:43:08;9.35;41.36
72772;SHT30;60894;42.544;1.516;2023-03-14T09:45:38;9.56;40.44
72772;SHT30;60894;42.544;1.516;2023-03-14T09:48:08;9.76;40.95
72772;SHT30;60894;42.544;1.516;2023-03-14T09:50:40;9.77;39.38
72772;SHT30;60894;42.544;1.516;2023-03-14T09:53:13;9.84;39.13
72772;SHT30;60894;42.544;1.516;2023-03-14T09:55:42;9.83;39.80
72772;SHT30;60894;42.544;1.516;2023-03-14T09:58:11;9.69;38.95
72772;SHT30;60894;42.544;1.516;2023-03-14T10:00:38;9.73;38.99
72772;SHT30;60894;42.544;1.516;2023-03-14T10:03:25;9.91;40.33
72772;SHT30;60894;42.544;1.516;2023-03-14T10:05:54;9.98;39.21
72772;SHT30;60894;42.544;1.516;2023-03-14T10:08:22;9.97;39.93
72772;SHT30;60894;42.544;1.516;2023-03-14T10:10:49;10.31;39.92
72772;SHT30;60894;42.544;1.516;2023-03-14T10:13:17;10.35;38.51
72772;SHT30;60894;42.544;1.516;2023-03-14T10:15:50;10.35;37.73
72772;SHT30;60894;42.544;1.516;2023-03-14T10:18:18;10.42;38.34
72772;SHT30;60894;42.544;1.516;2023-03-14T10:20:46;10.58;38.76
72772;SHT30;60894;42.544;1.516;2023-03-14T10:23:27;10.91;37.36
72772;SHT30;60894;42.544;1.516;2023-03-14T10:26:06;10.83;37.42
72772;SHT30;60894;42.544;1.516;2023-03-14T10:28:38;11.12;38.60
72772;SHT30;60894;42.544;1.516;2023-03-14T10:31:06;11.43;37.81
72772;SHT30;60894;42.544;1.516;2023-03-14T10:33:34;11.34;36.76
72772;SHT30;60894;42.544;1.516;2023-03-14T10:36:03;11.51;37.73
72772;SHT30;60894;42.544;1.516;2023-03-14T10:38:34;11.55;34.13
72772;SHT30;60894;42.544;1.516;2023-03-14T10:41:03;11.19;33.92
72772;SHT30;60894;42.544;1.516;2023-03-14T10:43:40;11.51;34.87
72772;SHT30;60894;42.544;1.516;2023-03-14T10:46:11;11.50;35.30
72772;SHT30;60894;42.544;1.516;2023-03-14T10:48:39;11.98;37.54
72772;SHT30;60894;42.544;1.516;2023-03-14T10:51:09;12.33;35.55
72772;SHT30;60894;42.544;1.516;2023-03-14T10:53:43;12.74;35.30
72772;SHT30;60894;42.544;1.516;2023-03-14T10:56:14;13.04;31.65
72772;SHT30;60894;42.544;1.516;2023-03-14T10:58:42;13.08;32.85
72772;SHT30;60894;42.544;1.516;2023-03-14T11:01:23;13.12;32.18
72772;SHT30;60894;42.544;1.516;2023-03-14T11:03:56;13.44;31.78
72772;SHT30;60894;42.544;1.516;2023-03-14T11:06:30;13.51;31.90
72772;SHT30;60894;42.544;1.516;2023-03-14T11:09:07;13.45;31.65
72772;SHT30;60894;42.544;1.516;2023-03-14T11:11:39;13.11;30.70
72772;SHT30;60894;42.544;1.516;2023-03-14T11:14:16;13.32;30.48
72772;SHT30;60894;42.544;1.516;2023-03-14T11:16:53;13.05;31.00
72772;SHT30;60894;42.544;1.516;2023-03-14T11:19:32;12.66;32.67
72772;SHT30;60894;42.544;1.516;2023-03-14T11:22:06;12.95;31.33
72772;SHT30;60894;42.544;1.516;2023-03-14T11:24:50;13.29;32.48
72772;SHT30;60894;42.544;1.516;2023-03-14T11:27:23;13.82;32.05
72772;SHT30;60894;42.544;1.516;2023-03-14T11:29:55;14.05;30.45
72772;SHT30;60894;42.544;1.516;2023-03-14T11:32:36;14.42;29.18
72772;SHT30;60894;42.544;1.516;2023-03-14T11:35:14;13.66;27.30
72772;SHT30;60894;42.544;1.516;2023-03-14T11:37:46;13.56;28.60
72772;SHT30;60894;42.544;1.516;2023-03-14T11:40:18;14.05;30.83
72772;SHT30;60894;42.544;1.516;2023-03-14T11:42:53;14.16;28.76
72772;SHT30;60894;42.544;1.516;2023-03-14T11:45:28;14.06;28.76
72772;SHT30;60894;42.544;1.516;2023-03-14T11:48:07;14.09;28.73
72772;SHT30;60894;42.544;1.516;2023-03-14T11:50:38;13.85;28.96
72772;SHT30;60894;42.544;1.516;2023-03-14T11:53:09;14.12;29.59
72772;SHT30;60894;42.544;1.516;2023-03-14T11:55:41;14.03;29.58
72772;SHT30;60894;42.544;1.516;2023-03-14T11:58:13;13.87;29.64
72772;SHT30;60894;42.544;1.516;2023-03-14T12:00:41;13.22;28.85
72772;SHT30;60894;42.544;1.516;2023-03-14T12:03:12;12.16;31.66
72772;SHT30;60894;42.544;1.516;2023-03-14T12:05:47;13.04;31.75
72772;SHT30;60894;42.544;1.516;2023-03-14T12:08:43;13.46;31.21
72772;SHT30;60894;42.544;1.516;2023-03-14T12:11:17;13.19;31.12
72772;SHT30;60894;42.544;1.516;2023-03-14T12:13:48;13.15;32.45
72772;SHT30;60894;42.544;1.516;2023-03-14T12:16:33;13.07;32.10
72772;SHT30;60894;42.544;1.516;2023-03-14T12:19:35;12.80;32.75
72772;SHT30;60894;42.544;1.516;2023-03-14T12:22:19;13.21;33.53
72772;SHT30;60894;42.544;1.516;2023-03-14T12:24:50;13.03;32.37
72772;SHT30;60894;42.544;1.516;2023-03-14T12:27:42;13.05;33.28
72772;SHT30;60894;42.544;1.516;2023-03-14T12:30:21;13.39;33.34
72772;SHT30;60894;42.544;1.516;2023-03-14T12:33:19;13.17;33.22
72772;SHT30;60894;42.544;1.516;2023-03-14T12:35:48;13.04;33.23
72772;SHT30;60894;42.544;1.516;2023-03-14T12:38:21;13.28;33.32
72772;SHT30;60894;42.544;1.516;2023-03-14T12:40:57;13.61;33.13
72772;SHT30;60894;42.544;1.516;2023-03-14T12:43:28;13.80;32.37
72772;SHT30;60894;42.544;1.516;2023-03-14T12:48:54;13.08;34.78
72772;SHT30;60894;42.544;1.516;2023-03-14T12:51:29;13.18;35.24
72772;SHT30;60894;42.544;1.516;2023-03-14T12:54:23;13.01;35.29
72772;SHT30;60894;42.544;1.516;2023-03-14T12:57:02;12.67;36.56
72772;SHT30;60894;42.544;1.516;2023-03-14T12:59:34;12.63;37.24
72772;SHT30;60894;42.544;1.516;2023-03-14T13:02:17;12.72;37.29
72772;SHT30;60894;42.544;1.516;2023-03-14T13:04:48;12.43;38.51
72772;SHT30;60894;42.544;1.516;2023-03-14T13:07:31;12.11;40.31
72772;SHT30;60894;42.544;1.516;2023-03-14T13:10:20;11.57;41.28
72772;SHT30;60894;42.544;1.516;2023-03-14T13:12:50;11.37;42.68
72772;SHT30;60894;42.544;1.516;2023-03-14T13:15:22;11.47;42.35
72772;SHT30;60894;42.544;1.516;2023-03-14T13:17:53;11.26;42.41
72772;SHT30;60894;42.544;1.516;2023-03-14T13:20:26;11.31;44.20
72772;SHT30;60894;42.544;1.516;2023-03-14T13:22:54;11.43;44.37
72772;SHT30;60894;42.544;1.516;2023-03-14T13:25:21;11.81;43.33
72772;SHT30;60894;42.544;1.516;2023-03-14T13:27:49;12.05;43.19
72772;SHT30;60894;42.544;1.516;2023-03-14T13:30:23;12.50;41.62
72772;SHT30;60894;42.544;1.516;2023-03-14T13:32:52;11.91;41.42
72772;SHT30;60894;42.544;1.516;2023-03-14T13:35:25;11.61;42.64
72772;SHT30;60894;42.544;1.516;2023-03-14T13:37:57;11.63;42.79
72772;SHT30;60894;42.544;1.516;2023-03-14T13:40:28;11.51;43.38
72772;SHT30;60894;42.544;1.516;2023-03-14T13:43:04;11.57;43.06
72772;SHT30;60894;42.544;1.516;2023-03-14T13:45:44;11.58;43.36
72772;SHT30;60894;42.544;1.516;2023-03-14T13:48:12;11.48;43.55
72772;SHT30;60894;42.544;1.516;2023-03-14T13:50:46;11.51;42.85
72772;SHT30;60894;42.544;1.516;2023-03-14T13:53:13;11.68;42.40
72772;SHT30;60894;42.544;1.516;2023-03-14T13:55:40;11.54;41.73
72772;SHT30;60894;42.544;1.516;2023-03-14T13:58:18;11.53;40.82
72772;SHT30;60894;42.544;1.516;2023-03-14T14:00:59;11.45;41.95
72772;SHT30;60894;42.544;1.516;2023-03-14T14:03:27;11.43;43.01
72772;SHT30;60894;42.544;1.516;2023-03-14T14:05:56;11.24;42.24
72772;SHT30;60894;42.544;1.516;2023-03-14T14:08:24;11.47;42.34
72772;SHT30;60894;42.544;1.516;2023-03-14T14:10:57;11.53;40.05
72772;SHT30;60894;42.544;1.516;2023-03-14T14:13:27;11.91;40.58
72772;SHT30;60894;42.544;1.516;2023-03-14T14:15:59;12.22;38.31
72772;SHT30;60894;42.544;1.516;2023-03-14T14:18:29;12.29;38.01
72772;SHT30;60894;42.544;1.516;2023-03-14T14:20:57;12.36;38.08
72772;SHT30;60894;42.544;1.516;2023-03-14T14:23:26;12.79;37.67
72772;SHT30;60894;42.544;1.516;2023-03-14T14:25:55;12.90;36.17
72772;SHT30;60894;42.544;1.516;2023-03-14T14:28:26;13.03;36.17
72772;SHT30;60894;42.544;1.516;2023-03-14T14:31:15;13.28;35.98
72772;SHT30;60894;42.544;1.516;2023-03-14T14:33:44;12.90;33.86
72772;SHT30;60894;42.544;1.516;2023-03-14T14:36:15;13.17;33.89
72772;SHT30;60894;42.544;1.516;2023-03-14T14:38:49;12.98;35.27
72772;SHT30;60894;42.544;1.516;2023-03-14T14:41:16;12.93;34.03
72772;SHT30;60894;42.544;1.516;2023-03-14T14:43:43;12.97;34.07
72772;SHT30;60894;42.544;1.516;2023-03-14T14:46:17;12.52;34.18
72772;SHT30;60894;42.544;1.516;2023-03-14T14:48:45;12.30;35.16
72772;SHT30;60894;42.544;1.516;2023-03-14T14:51:23;12.12;35.35
72772;SHT30;60894;42.544;1.516;2023-03-14T14:54:01;11.88;38.03
72772;SHT30;60894;42.544;1.516;2023-03-14T14:56:29;11.50;40.27
72772;SHT30;60894;42.544;1.516;2023-03-14T14:58:58;11.40;40.96
72772;SHT30;60894;42.544;1.516;2023-03-14T15:01:32;11.10;40.47
72772;SHT30;60894;42.544;1.516;2023-03-14T15:04:00;10.76;41.50
72772;SHT30;60894;42.544;1.516;2023-03-14T15:06:28;10.85;41.41
72772;SHT30;60894;42.544;1.516;2023-03-14T15:08:57;10.93;41.84
72772;SHT30;60894;42.544;1.516;2023-03-14T15:11:26;11.00;41.78
72772;SHT30;60894;42.544;1.516;2023-03-14T15:13:53;10.82;42.02
72772;SHT30;60894;42.544;1.516;2023-03-14T15:16:21;10.86;41.85
72772;SHT30;60894;42.544;1.516;2023-03-14T15:18:53;11.14;41.06
72772;SHT30;60894;42.544;1.516;2023-03-14T15:21:22;11.71;39.28
72772;SHT30;60894;42.544;1.516;2023-03-14T15:23:49;11.99;37.91
72772;SHT30;60894;42.544;1.516;2023-03-14T15:26:17;12.74;36.10
72772;SHT30;60894;42.544;1.516;2023-03-14T15:28:45;13.63;34.99
72772;SHT30;60894;42.544;1.516;2023-03-14T15:31:13;13.39;32.78
72772;SHT30;60894;42.544;1.516;2023-03-14T15:33:41;13.44;32.58
72772;SHT30;60894;42.544;1.516;2023-03-14T15:36:19;13.63;31.57
72772;SHT30;60894;42.544;1.516;2023-03-14T15:38:47;14.07;30.07
72772;SHT30;60894;42.544;1.516;2023-03-14T15:41:14;14.30;30.24
72772;SHT30;60894;42.544;1.516;2023-03-14T15:43:42;14.26;29.43
72772;SHT30;60894;42.544;1.516;2023-03-14T15:46:09;14.27;29.54
72772;SHT30;60894;42.544;1.516;2023-03-14T15:48:36;14.23;28.51
72772;SHT30;60894;42.544;1.516;2023-03-14T15:51:03;13.99;29.75
72772;SHT30;60894;42.544;1.516;2023-03-14T15:53:31;13.82;28.52
72772;SHT30;60894;42.544;1.516;2023-03-14T15:55:58;13.45;28.80
72772;SHT30;60894;42.544;1.516;2023-03-14T15:58:25;13.34;29.58